Time;durP1;ratioP1;P1;durP2;ratioP2;P2;SDS_P1;SDS_P2;PMS_P1;PMS_P2;Temp;Humidity;BMP_temperature;BMP_pressure;BME280_temperature;BME280_humidity;BME280_pressure;Samples;Min_cycle;Max_cycle;Signal;HPM_P1;HPM_P2
2023/12/25 06:00:31;;;;;;;0.90;0.73;;;;;;;;;;1740675;28;20209;-76
2023/12/25 06:01:22;;;;;;;1.10;0.90;;;;;;;;;;1740764;28;20245;-75
2023/12/25 06:02:14;;;;;;;1.38;0.98;;;;;;;;;;1740531;28;20537;-76
2023/12/25 06:03:06;;;;;;;2.58;0.90;;;;;;;;;;1740912;28;20282;-75
2023/12/25 06:03:58;;;;;;;0.82;0.77;;;;;;;;;;1740540;28;20578;-75
2023/12/25 06:04:49;;;;;;;1.40;0.90;;;;;;;;;;1740969;28;20203;-76
2023/12/25 06:05:41;;;;;;;2.00;0.90;;;;;;;;;;1741693;28;20282;-76
2023/12/25 06:06:32;;;;;;;1.58;0.90;;;;;;;;;;1742200;28;20252;-76
2023/12/25 06:07:24;;;;;;;0.90;0.80;;;;;;;;;;1742194;28;20601;-76
2023/12/25 06:08:16;;;;;;;1.83;1.05;;;;;;;;;;1741874;28;20680;-76
2023/12/25 06:09:10;;;;;;;0.98;0.75;;;;;;;;;;1742125;28;20199;-75
2023/12/25 06:10:01;;;;;;;1.10;0.80;;;;;;;;;;1741745;28;20191;-76
2023/12/25 06:10:53;;;;;;;1.25;1.02;;;;;;;;;;1741907;28;20275;-75
2023/12/25 06:11:44;;;;;;;1.55;0.80;;;;;;;;;;1742205;28;20207;-76
2023/12/25 06:12:35;;;;;;;1.00;0.80;;;;;;;;;;1742217;28;20195;-76
2023/12/25 06:13:27;;;;;;;1.05;0.90;;;;;;;;;;1742108;28;20210;-76
2023/12/25 06:14:18;;;;;;;1.35;1.00;;;;;;;;;;1742022;28;20668;-76
2023/12/25 06:15:09;;;;;;;2.10;1.05;;;;;;;;;;1742189;28;20209;-76
2023/12/25 06:16:03;;;;;;;1.00;0.90;;;;;;;;;;1742124;28;20710;-76
2023/12/25 06:16:54;;;;;;;1.08;0.98;;;;;;;;;;1741950;28;20707;-76
2023/12/25 06:17:45;;;;;;;1.42;1.05;;;;;;;;;;1741899;28;20199;-74
2023/12/25 06:18:37;;;;;;;1.48;0.93;;;;;;;;;;1741940;28;20226;-76
2023/12/25 06:19:28;;;;;;;0.90;0.80;;;;;;;;;;1742182;28;20207;-76
2023/12/25 06:20:23;;;;;;;0.80;0.77;;;;;;;;;;1741990;28;20227;-75
2023/12/25 06:21:14;;;;;;;1.20;0.95;;;;;;;;;;1741675;28;20231;-76
2023/12/25 06:22:05;;;;;;;2.53;0.90;;;;;;;;;;1741766;28;20563;-76
2023/12/25 06:22:57;;;;;;;1.08;0.98;;;;;;;;;;1741834;28;20252;-76
2023/12/25 06:23:48;;;;;;;1.02;0.80;;;;;;;;;;1742096;28;20207;-76
2023/12/25 06:24:39;;;;;;;0.90;0.80;;;;;;;;;;1742013;28;20686;-76
2023/12/25 06:25:32;;;;;;;1.42;0.90;;;;;;;;;;1742188;28;20223;-76
2023/12/25 06:26:23;;;;;;;0.93;0.80;;;;;;;;;;1741712;28;20683;-76
2023/12/25 06:27:14;;;;;;;0.85;0.80;;;;;;;;;;1735200;28;20227;-76
2023/12/25 06:28:06;;;;;;;1.00;0.70;;;;;;;;;;1740688;28;20662;-75
2023/12/25 06:28:57;;;;;;;0.98;0.80;;;;;;;;;;1742036;28;20199;-76
2023/12/25 06:29:48;;;;;;;1.20;0.90;;;;;;;;;;1742042;28;20195;-76
2023/12/25 06:30:40;;;;;;;1.70;0.90;;;;;;;;;;1741696;28;20223;-76
2023/12/25 06:31:33;;;;;;;1.10;0.82;;;;;;;;;;1742081;28;20218;-75
2023/12/25 06:32:24;;;;;;;1.63;0.82;;;;;;;;;;1741975;28;20671;-76
2023/12/25 06:33:16;;;;;;;1.60;0.90;;;;;;;;;;1742053;28;20191;-75
2023/12/25 06:34:07;;;;;;;1.02;0.90;;;;;;;;;;1741988;28;20608;-74
2023/12/25 06:34:59;;;;;;;3.80;1.02;;;;;;;;;;1742023;28;20660;-76
2023/12/25 06:35:50;;;;;;;1.35;1.00;;;;;;;;;;1742003;28;20218;-76
2023/12/25 06:36:42;;;;;;;2.08;1.10;;;;;;;;;;1741853;28;20317;-75
2023/12/25 06:37:33;;;;;;;1.50;1.05;;;;;;;;;;1741973;28;20199;-75
2023/12/25 06:38:25;;;;;;;1.42;0.95;;;;;;;;;;1741672;28;20197;-76
2023/12/25 06:39:17;;;;;;;1.45;1.10;;;;;;;;;;1742057;28;20203;-76
2023/12/25 06:40:09;;;;;;;1.10;0.90;;;;;;;;;;1741862;28;20205;-76
2023/12/25 06:41:01;;;;;;;1.48;1.00;;;;;;;;;;1741693;28;20582;-76
2023/12/25 06:41:52;;;;;;;1.10;0.90;;;;;;;;;;1741997;28;20203;-76
2023/12/25 06:42:44;;;;;;;1.50;0.93;;;;;;;;;;1741680;28;20227;-75
2023/12/25 06:43:35;;;;;;;1.27;0.90;;;;;;;;;;1741832;28;20203;-76
2023/12/25 06:44:27;;;;;;;1.00;0.80;;;;;;;;;;1741953;28;20207;-75
2023/12/25 06:45:18;;;;;;;0.85;0.80;;;;;;;;;;1741945;28;20198;-76
2023/12/25 06:46:09;;;;;;;1.33;1.05;;;;;;;;;;1741986;28;20625;-75
2023/12/25 06:47:03;;;;;;;1.13;0.90;;;;;;;;;;1741854;28;20199;-75
2023/12/25 06:47:54;;;;;;;1.10;0.70;;;;;;;;;;1741547;28;20195;-76
2023/12/25 06:48:46;;;;;;;1.10;0.90;;;;;;;;;;1741743;28;20532;-75
2023/12/25 06:49:37;;;;;;;1.00;0.80;;;;;;;;;;1741889;28;20207;-76
2023/12/25 06:50:29;;;;;;;1.42;0.70;;;;;;;;;;1741875;28;20309;-76
2023/12/25 06:51:20;;;;;;;1.85;1.00;;;;;;;;;;1741586;28;20286;-76
2023/12/25 06:52:11;;;;;;;2.28;0.80;;;;;;;;;;1741967;28;20198;-75
2023/12/25 06:53:03;;;;;;;1.25;0.90;;;;;;;;;;1741473;28;20195;-76
2023/12/25 06:53:54;;;;;;;1.45;1.17;;;;;;;;;;1741870;28;20203;-75
2023/12/25 06:54:47;;;;;;;1.30;1.10;;;;;;;;;;1741753;28;20651;-76
2023/12/25 06:55:38;;;;;;;1.80;1.10;;;;;;;;;;1741871;28;20199;-76
2023/12/25 06:56:29;;;;;;;1.73;1.17;;;;;;;;;;1741793;28;20664;-76
2023/12/25 06:57:21;;;;;;;1.00;0.80;;;;;;;;;;1741835;28;20202;-76
2023/12/25 06:58:12;;;;;;;1.10;1.00;;;;;;;;;;1741509;28;20207;-76
2023/12/25 06:59:03;;;;;;;1.40;0.98;;;;;;;;;;1741812;28;20615;-75
2023/12/25 06:59:57;;;;;;;1.00;0.85;;;;;;;;;;1741910;28;20274;-75
2023/12/25 07:00:48;;;;;;;1.30;0.88;;;;;;;;;;1741464;28;20615;-75
2023/12/25 07:01:39;;;;;;;1.27;1.15;;;;;;;;;;1741817;28;20294;-75
2023/12/25 07:02:32;;;;;;;1.25;1.13;;;;;;;;;;1741524;28;20202;-75
2023/12/25 07:03:23;;;;;;;1.15;1.05;;;;;;;;;;1741870;28;20234;-75
2023/12/25 07:04:15;;;;;;;1.20;1.10;;;;;;;;;;1741833;28;20245;-76
2023/12/25 07:05:07;;;;;;;1.27;1.17;;;;;;;;;;1741840;28;20225;-75
2023/12/25 07:05:58;;;;;;;3.67;1.00;;;;;;;;;;1741794;28;20748;-75
2023/12/25 07:06:50;;;;;;;1.65;0.95;;;;;;;;;;1741832;28;20207;-75
2023/12/25 07:07:41;;;;;;;2.35;1.25;;;;;;;;;;1741827;28;20219;-75
2023/12/25 07:08:32;;;;;;;2.53;1.15;;;;;;;;;;1741422;28;20203;-76
2023/12/25 07:09:25;;;;;;;1.40;1.00;;;;;;;;;;1741801;28;20679;-75
2023/12/25 07:10:16;;;;;;;4.07;1.40;;;;;;;;;;1741672;28;20225;-75
2023/12/25 07:11:09;;;;;;;1.55;1.20;;;;;;;;;;1742807;28;20552;-74
2023/12/25 07:12:00;;;;;;;1.20;1.10;;;;;;;;;;1742754;28;20613;-75
2023/12/25 07:12:52;;;;;;;1.52;0.90;;;;;;;;;;1742219;28;20230;-75
2023/12/25 07:13:43;;;;;;;1.35;1.00;;;;;;;;;;1742210;28;20199;-75
2023/12/25 07:14:34;;;;;;;4.63;1.00;;;;;;;;;;1742439;28;20210;-75
2023/12/25 07:15:28;;;;;;;1.33;1.00;;;;;;;;;;1742480;28;20203;-75
2023/12/25 07:16:22;;;;;;;1.10;0.80;;;;;;;;;;1741135;28;20242;-75
2023/12/25 07:17:13;;;;;;;1.13;1.02;;;;;;;;;;1742254;28;20263;-75
2023/12/25 07:18:07;;;;;;;2.15;1.00;;;;;;;;;;1741648;28;20210;-75
2023/12/25 07:18:58;;;;;;;1.15;0.90;;;;;;;;;;1741402;28;20195;-75
2023/12/25 07:19:49;;;;;;;0.95;0.85;;;;;;;;;;1741787;28;20656;-75
2023/12/25 07:20:43;;;;;;;1.35;0.93;;;;;;;;;;1741119;28;20714;-74
2023/12/25 07:21:34;;;;;;;1.42;0.90;;;;;;;;;;1741723;28;20218;-74
2023/12/25 07:22:27;;;;;;;1.15;0.98;;;;;;;;;;1737766;28;20199;-76
2023/12/25 07:23:18;;;;;;;2.65;1.00;;;;;;;;;;1736314;28;20200;-82
2023/12/25 07:24:10;;;;;;;1.30;1.20;;;;;;;;;;1741984;28;20205;-83
2023/12/25 07:25:05;;;;;;;1.75;1.25;;;;;;;;;;1741924;28;20199;-85
2023/12/25 07:25:57;;;;;;;1.92;1.27;;;;;;;;;;1742633;28;20789;-84
2023/12/25 07:26:48;;;;;;;1.35;1.25;;;;;;;;;;1742557;28;20206;-83
2023/12/25 07:27:40;;;;;;;1.10;1.00;;;;;;;;;;1742383;28;20230;-84
2023/12/25 07:28:31;;;;;;;2.35;1.50;;;;;;;;;;1742208;28;20233;-84
2023/12/25 07:29:23;;;;;;;1.90;1.30;;;;;;;;;;1742352;28;20265;-84
2023/12/25 07:30:15;;;;;;;1.48;1.20;;;;;;;;;;1742230;28;20277;-83
2023/12/25 07:31:06;;;;;;;1.88;1.20;;;;;;;;;;1742188;28;20221;-84
2023/12/25 07:31:57;;;;;;;1.45;1.20;;;;;;;;;;1742299;28;20210;-83
2023/12/25 07:32:49;;;;;;;1.33;1.00;;;;;;;;;;1742838;28;20620;-82
2023/12/25 07:33:42;;;;;;;1.50;1.33;;;;;;;;;;1742988;28;20203;-83
2023/12/25 07:34:34;;;;;;;1.20;1.10;;;;;;;;;;1742990;28;20671;-83
2023/12/25 07:35:26;;;;;;;1.25;1.13;;;;;;;;;;1740934;28;20199;-84
2023/12/25 07:36:18;;;;;;;1.80;1.10;;;;;;;;;;1742599;28;20207;-82
2023/12/25 07:37:09;;;;;;;1.10;1.00;;;;;;;;;;1743373;28;20230;-82
2023/12/25 07:38:01;;;;;;;1.38;1.20;;;;;;;;;;1743574;28;20207;-81
2023/12/25 07:38:52;;;;;;;1.10;0.90;;;;;;;;;;1741852;28;20214;-81
2023/12/25 07:39:44;;;;;;;0.98;0.80;;;;;;;;;;1739518;28;20187;-81
2023/12/25 07:40:35;;;;;;;1.98;0.95;;;;;;;;;;1739710;28;20231;-81
2023/12/25 07:41:27;;;;;;;1.20;0.90;;;;;;;;;;1743416;28;20679;-81
2023/12/25 07:42:18;;;;;;;1.25;0.75;;;;;;;;;;1743852;28;20195;-82
2023/12/25 07:43:10;;;;;;;1.15;0.93;;;;;;;;;;1743744;28;20195;-81
2023/12/25 07:44:02;;;;;;;0.80;0.70;;;;;;;;;;1744088;28;20667;-81
2023/12/25 07:44:53;;;;;;;1.10;1.00;;;;;;;;;;1743863;28;20203;-81
2023/12/25 07:45:45;;;;;;;1.10;0.90;;;;;;;;;;1743899;28;20570;-81
2023/12/25 07:46:37;;;;;;;0.88;0.75;;;;;;;;;;1740823;28;20200;-81
2023/12/25 07:47:28;;;;;;;2.25;0.90;;;;;;;;;;1740968;28;20200;-82
2023/12/25 07:48:19;;;;;;;1.10;0.98;;;;;;;;;;1740600;28;20191;-82
2023/12/25 07:49:12;;;;;;;1.10;0.82;;;;;;;;;;1740789;28;20197;-82
2023/12/25 07:50:04;;;;;;;1.42;0.80;;;;;;;;;;1741225;28;20206;-82
2023/12/25 07:50:55;;;;;;;1.35;0.90;;;;;;;;;;1741558;28;20214;-82
2023/12/25 07:51:48;;;;;;;3.17;1.10;;;;;;;;;;1740762;28;20193;-82
2023/12/25 07:52:39;;;;;;;0.93;0.80;;;;;;;;;;1741808;28;20207;-83
2023/12/25 07:53:30;;;;;;;1.70;0.80;;;;;;;;;;1739373;28;20225;-82
2023/12/25 07:54:22;;;;;;;1.00;0.90;;;;;;;;;;1743156;28;20207;-83
2023/12/25 07:55:13;;;;;;;1.85;0.82;;;;;;;;;;1743803;28;20207;-83
2023/12/25 07:56:05;;;;;;;1.05;0.95;;;;;;;;;;1741318;28;20659;-83
2023/12/25 07:56:56;;;;;;;2.03;1.10;;;;;;;;;;1742776;28;20203;-84
2023/12/25 07:57:47;;;;;;;1.38;0.95;;;;;;;;;;1742792;28;20207;-83
2023/12/25 07:58:39;;;;;;;1.20;1.02;;;;;;;;;;1742446;28;20207;-84
2023/12/25 07:59:30;;;;;;;1.00;0.80;;;;;;;;;;1742250;28;20207;-84
2023/12/25 08:00:22;;;;;;;1.27;0.90;;;;;;;;;;1742221;28;20223;-83
2023/12/25 08:01:14;;;;;;;1.42;0.90;;;;;;;;;;1742162;28;20628;-83
2023/12/25 08:02:05;;;;;;;1.23;1.00;;;;;;;;;;1742713;28;20279;-83
2023/12/25 08:02:56;;;;;;;1.00;0.90;;;;;;;;;;1742502;28;20187;-83
2023/12/25 08:03:48;;;;;;;1.00;0.90;;;;;;;;;;1742689;28;20581;-83
2023/12/25 08:04:41;;;;;;;1.02;0.82;;;;;;;;;;1742760;28;20198;-84
2023/12/25 08:05:33;;;;;;;1.45;1.05;;;;;;;;;;1742867;28;20233;-83
2023/12/25 08:06:24;;;;;;;1.98;0.85;;;;;;;;;;1742767;28;20203;-83
2023/12/25 08:07:15;;;;;;;1.00;0.80;;;;;;;;;;1742765;28;20658;-83
2023/12/25 08:08:07;;;;;;;1.10;1.00;;;;;;;;;;1742034;28;20218;-83
2023/12/25 08:08:58;;;;;;;2.15;0.93;;;;;;;;;;1742514;28;20203;-85
2023/12/25 08:09:49;;;;;;;1.52;0.90;;;;;;;;;;1742695;28;20613;-83
2023/12/25 08:10:42;;;;;;;1.30;0.80;;;;;;;;;;1742614;28;20768;-83
2023/12/25 08:11:35;;;;;;;1.02;0.90;;;;;;;;;;1742054;28;20207;-84
2023/12/25 08:12:26;;;;;;;1.10;0.93;;;;;;;;;;1742656;28;20249;-82
2023/12/25 08:13:18;;;;;;;1.42;0.90;;;;;;;;;;1742973;28;20208;-84
2023/12/25 08:14:09;;;;;;;1.05;0.95;;;;;;;;;;1743124;28;20207;-83
2023/12/25 08:15:00;;;;;;;1.10;0.90;;;;;;;;;;1742730;28;20270;-84
2023/12/25 08:15:52;;;;;;;1.20;0.90;;;;;;;;;;1742830;28;20195;-82
2023/12/25 08:16:43;;;;;;;1.50;0.85;;;;;;;;;;1742958;28;20567;-83
2023/12/25 08:17:35;;;;;;;1.05;0.80;;;;;;;;;;1742622;28;20243;-82
2023/12/25 08:18:27;;;;;;;1.27;0.80;;;;;;;;;;1742383;28;20230;-83
2023/12/25 08:19:18;;;;;;;1.10;0.88;;;;;;;;;;1742390;28;20210;-83
2023/12/25 08:20:12;;;;;;;1.42;1.00;;;;;;;;;;1742597;28;20200;-83
2023/12/25 08:21:04;;;;;;;0.93;0.80;;;;;;;;;;1742137;28;20211;-83
2023/12/25 08:21:56;;;;;;;1.17;0.85;;;;;;;;;;1742601;28;20237;-83
2023/12/25 08:22:47;;;;;;;1.45;0.93;;;;;;;;;;1742769;28;20207;-82
2023/12/25 08:23:40;;;;;;;0.90;0.80;;;;;;;;;;1742969;28;20252;-80
2023/12/25 08:24:35;;;;;;;1.50;0.80;;;;;;;;;;1741859;28;20199;-81
2023/12/25 08:25:26;;;;;;;1.00;0.90;;;;;;;;;;1742351;28;20364;-81
2023/12/25 08:26:18;;;;;;;0.90;0.80;;;;;;;;;;1742505;28;20195;-81
2023/12/25 08:27:10;;;;;;;1.60;1.15;;;;;;;;;;1742439;28;20199;-81
2023/12/25 08:28:01;;;;;;;1.40;0.82;;;;;;;;;;1741242;28;20214;-81
2023/12/25 08:28:52;;;;;;;0.90;0.80;;;;;;;;;;1742200;28;20198;-81
2023/12/25 08:29:44;;;;;;;1.45;0.98;;;;;;;;;;1741936;28;20202;-81
2023/12/25 08:30:35;;;;;;;1.65;1.00;;;;;;;;;;1741973;28;20223;-82
2023/12/25 08:31:26;;;;;;;1.10;1.00;;;;;;;;;;1741777;28;20203;-81
2023/12/25 08:32:18;;;;;;;1.25;1.05;;;;;;;;;;1742066;28;20207;-82
2023/12/25 08:33:10;;;;;;;1.58;0.90;;;;;;;;;;1742425;28;20199;-81
2023/12/25 08:34:01;;;;;;;1.15;0.90;;;;;;;;;;1742423;28;20209;-79
2023/12/25 08:34:53;;;;;;;1.52;0.93;;;;;;;;;;1742354;28;20195;-81
2023/12/25 08:35:46;;;;;;;1.15;1.00;;;;;;;;;;1741604;28;20203;-81
2023/12/25 08:36:38;;;;;;;1.48;0.90;;;;;;;;;;1741819;28;20369;-81
2023/12/25 08:37:29;;;;;;;1.40;1.30;;;;;;;;;;1741094;28;20253;-81
2023/12/25 08:38:21;;;;;;;1.00;0.80;;;;;;;;;;1740712;28;20248;-81
2023/12/25 08:39:12;;;;;;;1.05;0.77;;;;;;;;;;1741732;28;20202;-81
2023/12/25 08:40:04;;;;;;;1.45;1.00;;;;;;;;;;1741016;28;20264;-81
2023/12/25 08:40:57;;;;;;;1.65;0.90;;;;;;;;;;1741158;28;20250;-81
2023/12/25 08:41:48;;;;;;;1.52;0.88;;;;;;;;;;1741707;28;20211;-81
2023/12/25 08:42:40;;;;;;;2.03;1.00;;;;;;;;;;1741864;28;20291;-81
2023/12/25 08:43:31;;;;;;;0.90;0.80;;;;;;;;;;1741617;28;20217;-81
2023/12/25 08:44:23;;;;;;;1.15;0.90;;;;;;;;;;1741578;28;20195;-82
2023/12/25 08:45:14;;;;;;;1.13;0.85;;;;;;;;;;1741492;28;20291;-82
2023/12/25 08:46:05;;;;;;;1.10;0.93;;;;;;;;;;1741168;28;20686;-81
2023/12/25 08:46:57;;;;;;;1.30;1.20;;;;;;;;;;1741347;28;20202;-81
2023/12/25 08:47:51;;;;;;;1.10;0.90;;;;;;;;;;1734480;28;20660;-81
2023/12/25 08:48:42;;;;;;;1.00;0.90;;;;;;;;;;1734717;28;20196;-82
2023/12/25 08:49:34;;;;;;;1.27;0.90;;;;;;;;;;1740292;28;20230;-81
2023/12/25 08:50:26;;;;;;;1.25;0.90;;;;;;;;;;1741880;28;20223;-82
2023/12/25 08:51:19;;;;;;;0.95;0.80;;;;;;;;;;1741254;28;20718;-81
2023/12/25 08:52:10;;;;;;;6.03;1.15;;;;;;;;;;1742053;28;20203;-81
2023/12/25 08:53:02;;;;;;;1.00;0.90;;;;;;;;;;1742402;28;20290;-80
2023/12/25 08:53:53;;;;;;;0.85;0.70;;;;;;;;;;1742430;28;20214;-81
2023/12/25 08:54:45;;;;;;;0.90;0.80;;;;;;;;;;1741873;28;20195;-81
2023/12/25 08:55:37;;;;;;;1.50;1.08;;;;;;;;;;1742452;28;20742;-81
2023/12/25 08:56:28;;;;;;;1.10;0.95;;;;;;;;;;1742475;28;20207;-81
2023/12/25 08:57:20;;;;;;;1.17;0.90;;;;;;;;;;1735114;28;20200;-81
2023/12/25 08:58:12;;;;;;;2.38;1.05;;;;;;;;;;1735101;28;20609;-81
2023/12/25 08:59:05;;;;;;;1.40;0.90;;;;;;;;;;1740543;28;20223;-81
2023/12/25 08:59:57;;;;;;;1.00;0.90;;;;;;;;;;1742071;28;20202;-81
2023/12/25 09:00:48;;;;;;;1.27;1.00;;;;;;;;;;1742327;28;20227;-81
2023/12/25 09:01:40;;;;;;;1.48;0.88;;;;;;;;;;1742091;28;20195;-81
2023/12/25 09:02:32;;;;;;;1.30;0.90;;;;;;;;;;1742405;28;20206;-81
2023/12/25 09:03:23;;;;;;;2.00;1.00;;;;;;;;;;1742233;28;20203;-81
2023/12/25 09:04:15;;;;;;;1.20;0.90;;;;;;;;;;1742175;28;20202;-80
2023/12/25 09:05:06;;;;;;;1.23;0.95;;;;;;;;;;1742145;28;20266;-81
2023/12/25 09:05:57;;;;;;;1.27;1.02;;;;;;;;;;1742447;28;20257;-81
2023/12/25 09:06:51;;;;;;;1.40;0.90;;;;;;;;;;1742358;28;20233;-81
2023/12/25 09:07:42;;;;;;;2.05;1.02;;;;;;;;;;1742135;28;20226;-81
2023/12/25 09:08:33;;;;;;;1.10;1.00;;;;;;;;;;1741884;28;20252;-80
2023/12/25 09:09:25;;;;;;;0.90;0.70;;;;;;;;;;1741701;28;20191;-81
2023/12/25 09:10:16;;;;;;;2.95;1.00;;;;;;;;;;1742345;28;20294;-81
2023/12/25 09:11:08;;;;;;;1.00;0.80;;;;;;;;;;1741641;28;20214;-81
2023/12/25 09:12:00;;;;;;;1.17;0.80;;;;;;;;;;1742014;28;20199;-81
2023/12/25 09:12:51;;;;;;;2.05;0.90;;;;;;;;;;1742239;28;20207;-81
2023/12/25 09:13:43;;;;;;;1.50;1.17;;;;;;;;;;1742054;28;20199;-81
2023/12/25 09:14:35;;;;;;;1.08;0.80;;;;;;;;;;1741845;28;20199;-81
2023/12/25 09:15:26;;;;;;;1.00;0.90;;;;;;;;;;1742047;28;20206;-80
2023/12/25 09:16:17;;;;;;;1.10;0.80;;;;;;;;;;1742093;28;20202;-81
2023/12/25 09:17:09;;;;;;;1.08;0.90;;;;;;;;;;1742379;28;20202;-81
2023/12/25 09:18:00;;;;;;;1.17;1.08;;;;;;;;;;1741613;28;20207;-81
2023/12/25 09:18:51;;;;;;;1.00;0.80;;;;;;;;;;1742017;28;20237;-81
2023/12/25 09:19:44;;;;;;;1.33;0.90;;;;;;;;;;1741964;28;20249;-81
2023/12/25 09:20:35;;;;;;;1.00;0.90;;;;;;;;;;1742087;28;20230;-81
2023/12/25 09:21:27;;;;;;;1.15;1.05;;;;;;;;;;1741759;28;20222;-81
2023/12/25 09:22:21;;;;;;;1.55;0.88;;;;;;;;;;1742309;28;20579;-80
2023/12/25 09:23:12;;;;;;;1.73;1.00;;;;;;;;;;1741903;28;20207;-81
2023/12/25 09:24:04;;;;;;;0.98;0.80;;;;;;;;;;1742145;28;20195;-80
2023/12/25 09:24:55;;;;;;;1.05;0.90;;;;;;;;;;1742031;28;20222;-81
2023/12/25 09:25:47;;;;;;;0.88;0.75;;;;;;;;;;1742211;28;20203;-81
2023/12/25 09:26:39;;;;;;;1.38;1.15;;;;;;;;;;1742207;28;20202;-80
2023/12/25 09:27:30;;;;;;;1.52;0.85;;;;;;;;;;1742196;28;20214;-81
2023/12/25 09:28:21;;;;;;;1.00;0.80;;;;;;;;;;1741880;28;20198;-80
2023/12/25 09:29:13;;;;;;;0.90;0.80;;;;;;;;;;1742268;28;20208;-81
2023/12/25 09:30:05;;;;;;;1.90;1.02;;;;;;;;;;1741940;28;20203;-80
2023/12/25 09:30:56;;;;;;;1.00;0.80;;;;;;;;;;1742065;28;20199;-80
2023/12/25 09:31:48;;;;;;;1.00;0.90;;;;;;;;;;1741526;28;20278;-76
2023/12/25 09:32:40;;;;;;;1.20;0.90;;;;;;;;;;1741005;28;20628;-75
2023/12/25 09:33:31;;;;;;;1.20;0.80;;;;;;;;;;1734131;28;20200;-75
2023/12/25 09:34:23;;;;;;;1.42;0.90;;;;;;;;;;1734157;28;20223;-75
2023/12/25 09:35:15;;;;;;;1.05;0.60;;;;;;;;;;1739695;28;20293;-75
2023/12/25 09:36:07;;;;;;;1.10;0.80;;;;;;;;;;1740966;28;20628;-75
2023/12/25 09:36:59;;;;;;;2.85;0.90;;;;;;;;;;1740914;28;20207;-75
2023/12/25 09:37:51;;;;;;;1.85;0.80;;;;;;;;;;1740658;28;20223;-74
2023/12/25 09:38:43;;;;;;;1.10;0.80;;;;;;;;;;1740921;28;20206;-75
2023/12/25 09:39:34;;;;;;;1.00;0.80;;;;;;;;;;1741964;28;20206;-75
2023/12/25 09:40:26;;;;;;;1.20;1.05;;;;;;;;;;1742254;28;20215;-75
2023/12/25 09:41:18;;;;;;;1.42;0.95;;;;;;;;;;1742030;28;20207;-74
2023/12/25 09:42:09;;;;;;;1.10;0.90;;;;;;;;;;1742336;28;20233;-75
2023/12/25 09:43:02;;;;;;;1.00;0.80;;;;;;;;;;1742271;28;20810;-75
2023/12/25 09:43:54;;;;;;;1.58;0.90;;;;;;;;;;1742390;28;20207;-75
2023/12/25 09:44:46;;;;;;;1.48;0.80;;;;;;;;;;1742054;28;20198;-75
2023/12/25 09:45:38;;;;;;;1.00;0.80;;;;;;;;;;1742372;28;20199;-75
2023/12/25 09:46:30;;;;;;;1.38;1.10;;;;;;;;;;1742333;28;20234;-75
2023/12/25 09:47:21;;;;;;;0.90;0.80;;;;;;;;;;1742265;28;20214;-75
2023/12/25 09:48:13;;;;;;;1.63;0.90;;;;;;;;;;1741960;28;20278;-74
2023/12/25 09:49:04;;;;;;;3.60;0.90;;;;;;;;;;1742335;28;20574;-74
2023/12/25 09:49:56;;;;;;;1.17;0.95;;;;;;;;;;1742377;28;20700;-75
2023/12/25 09:50:48;;;;;;;1.23;0.98;;;;;;;;;;1742339;28;20798;-74
2023/12/25 09:51:39;;;;;;;1.10;0.90;;;;;;;;;;1742102;28;20191;-75
2023/12/25 09:52:32;;;;;;;1.60;0.90;;;;;;;;;;1742243;28;20203;-75
2023/12/25 09:53:24;;;;;;;0.98;0.80;;;;;;;;;;1742298;28;20211;-75
2023/12/25 09:54:15;;;;;;;1.17;1.08;;;;;;;;;;1742277;28;20257;-75
2023/12/25 09:55:08;;;;;;;1.45;0.88;;;;;;;;;;1742464;28;20657;-75
2023/12/25 09:56:00;;;;;;;1.70;1.00;;;;;;;;;;1742236;28;20243;-75
2023/12/25 09:56:51;;;;;;;1.55;1.20;;;;;;;;;;1742324;28;20203;-75
2023/12/25 09:57:44;;;;;;;1.60;1.05;;;;;;;;;;1742217;28;20356;-74
2023/12/25 09:58:35;;;;;;;1.05;0.80;;;;;;;;;;1741378;28;20199;-74
2023/12/25 09:59:28;;;;;;;1.17;1.08;;;;;;;;;;1742658;28;20201;-74
2023/12/25 10:00:21;;;;;;;2.97;1.00;;;;;;;;;;1742076;28;20560;-75
2023/12/25 10:01:13;;;;;;;1.15;1.00;;;;;;;;;;1742339;28;20286;-75
2023/12/25 10:02:05;;;;;;;1.83;0.93;;;;;;;;;;1741972;28;20203;-74
2023/12/25 10:02:59;;;;;;;1.40;0.80;;;;;;;;;;1742242;28;20659;-75
2023/12/25 10:03:51;;;;;;;1.10;1.00;;;;;;;;;;1742264;28;20588;-75
2023/12/25 10:04:43;;;;;;;1.00;0.90;;;;;;;;;;1741979;28;20203;-74
2023/12/25 10:05:35;;;;;;;1.25;0.80;;;;;;;;;;1742231;28;20719;-75
2023/12/25 10:06:26;;;;;;;1.33;0.60;;;;;;;;;;1742186;28;20207;-75
2023/12/25 10:07:20;;;;;;;1.48;0.80;;;;;;;;;;1742186;28;20198;-75
2023/12/25 10:08:12;;;;;;;0.95;0.73;;;;;;;;;;1741570;28;20554;-75
2023/12/25 10:09:05;;;;;;;1.48;0.88;;;;;;;;;;1742213;28;20191;-75
2023/12/25 10:09:57;;;;;;;1.52;1.27;;;;;;;;;;1742280;28;20203;-75
2023/12/25 10:10:49;;;;;;;2.20;1.73;;;;;;;;;;1742050;28;20277;-74
2023/12/25 10:11:40;;;;;;;1.80;1.23;;;;;;;;;;1742214;28;20663;-74
2023/12/25 10:12:32;;;;;;;3.63;2.33;;;;;;;;;;1742220;28;20202;-75
2023/12/25 10:13:24;;;;;;;3.38;2.50;;;;;;;;;;1742128;28;20202;-75
2023/12/25 10:14:15;;;;;;;1.50;1.40;;;;;;;;;;1742276;28;20256;-75
2023/12/25 10:15:08;;;;;;;2.30;1.40;;;;;;;;;;1742192;28;20257;-75
2023/12/25 10:16:00;;;;;;;1.98;1.15;;;;;;;;;;1741887;28;20206;-75
2023/12/25 10:16:56;;;;;;;1.60;1.50;;;;;;;;;;1742184;28;20219;-75
2023/12/25 10:17:48;;;;;;;1.50;1.35;;;;;;;;;;1741570;28;20226;-74
2023/12/25 10:18:40;;;;;;;1.70;1.60;;;;;;;;;;1741647;28;20192;-75
2023/12/25 10:19:32;;;;;;;2.42;1.55;;;;;;;;;;1742158;28;20286;-75
2023/12/25 10:20:23;;;;;;;1.15;0.90;;;;;;;;;;1741626;28;20567;-75
2023/12/25 10:21:14;;;;;;;1.58;1.48;;;;;;;;;;1742202;28;20195;-75
2023/12/25 10:22:08;;;;;;;3.25;1.00;;;;;;;;;;1742120;28;20191;-76
2023/12/25 10:23:00;;;;;;;2.95;1.45;;;;;;;;;;1742117;28;20702;-75
2023/12/25 10:23:51;;;;;;;1.92;1.80;;;;;;;;;;1742352;28;20663;-76
2023/12/25 10:24:44;;;;;;;2.08;1.63;;;;;;;;;;1742082;28;20206;-76
2023/12/25 10:25:42;;;;;;;2.75;2.55;;;;;;;;;;1742109;28;20206;-76
2023/12/25 10:26:34;;;;;;;1.88;1.60;;;;;;;;;;1742017;28;20253;-76
2023/12/25 10:27:25;;;;;;;1.88;1.17;;;;;;;;;;1742035;28;20214;-76
2023/12/25 10:28:18;;;;;;;1.70;1.52;;;;;;;;;;1741126;28;20270;-75
2023/12/25 10:29:11;;;;;;;2.63;1.90;;;;;;;;;;1742056;28;20195;-75
2023/12/25 10:30:03;;;;;;;1.60;1.23;;;;;;;;;;1741838;28;20211;-76
2023/12/25 10:31:01;;;;;;;2.85;1.95;;;;;;;;;;1735222;28;20191;-76
2023/12/25 10:31:53;;;;;;;1.25;1.15;;;;;;;;;;1736234;28;20290;-76
2023/12/25 10:32:44;;;;;;;3.25;2.95;;;;;;;;;;1741986;28;20211;-76
2023/12/25 10:33:36;;;;;;;1.98;1.75;;;;;;;;;;1742127;28;20613;-76
2023/12/25 10:34:28;;;;;;;2.20;2.00;;;;;;;;;;1741898;28;20670;-74
2023/12/25 10:35:19;;;;;;;1.65;1.55;;;;;;;;;;1742008;28;20199;-76
2023/12/25 10:36:13;;;;;;;1.30;1.20;;;;;;;;;;1741897;28;20206;-74
2023/12/25 10:37:06;;;;;;;1.10;0.90;;;;;;;;;;1741951;28;20750;-74
2023/12/25 10:37:58;;;;;;;1.45;1.35;;;;;;;;;;1741562;28;20230;-74
2023/12/25 10:38:49;;;;;;;3.28;1.27;;;;;;;;;;1741724;28;20289;-76
2023/12/25 10:39:40;;;;;;;1.02;0.93;;;;;;;;;;1742144;28;20199;-76
2023/12/25 10:40:34;;;;;;;1.38;1.00;;;;;;;;;;1741536;28;20212;-75
2023/12/25 10:41:27;;;;;;;1.40;1.20;;;;;;;;;;1741244;28;20203;-75
2023/12/25 10:42:19;;;;;;;2.00;1.20;;;;;;;;;;1741792;28;20199;-76
2023/12/25 10:43:10;;;;;;;1.42;1.33;;;;;;;;;;1741997;28;20206;-76
2023/12/25 10:44:02;;;;;;;2.00;1.20;;;;;;;;;;1735079;28;20211;-76
2023/12/25 10:44:55;;;;;;;1.30;1.20;;;;;;;;;;1735814;28;20203;-80
2023/12/25 10:45:50;;;;;;;4.85;4.35;;;;;;;;;;1742615;28;20555;-79
2023/12/25 10:46:43;;;;;;;1.50;1.30;;;;;;;;;;1743667;28;20205;-79
2023/12/25 10:47:34;;;;;;;2.08;1.52;;;;;;;;;;1743571;28;20203;-80
2023/12/25 10:48:25;;;;;;;4.80;4.30;;;;;;;;;;1743428;28;20195;-78
2023/12/25 10:49:17;;;;;;;2.47;1.60;;;;;;;;;;1744167;28;20195;-80
2023/12/25 10:50:09;;;;;;;2.55;1.95;;;;;;;;;;1744303;28;20199;-80
2023/12/25 10:51:02;;;;;;;2.55;1.85;;;;;;;;;;1741295;28;20199;-78
2023/12/25 10:51:54;;;;;;;2.15;1.50;;;;;;;;;;1742951;28;20667;-79
2023/12/25 10:52:47;;;;;;;2.63;2.10;;;;;;;;;;1743600;28;20195;-79
2023/12/25 10:53:38;;;;;;;1.73;1.50;;;;;;;;;;1743734;28;20209;-80
2023/12/25 10:54:32;;;;;;;1.50;1.30;;;;;;;;;;1729715;28;20219;-79
2023/12/25 10:55:24;;;;;;;1.70;1.20;;;;;;;;;;1744564;28;20207;-79
2023/12/25 10:56:18;;;;;;;1.50;1.40;;;;;;;;;;1744547;28;20601;-79
2023/12/25 10:57:10;;;;;;;1.75;1.20;;;;;;;;;;1737521;28;20236;-79
2023/12/25 10:58:02;;;;;;;1.73;1.60;;;;;;;;;;1736874;28;20220;-79
2023/12/25 10:58:54;;;;;;;2.47;1.80;;;;;;;;;;1742930;28;20258;-79
2023/12/25 10:59:47;;;;;;;1.70;1.38;;;;;;;;;;1743478;28;20195;-79
2023/12/25 11:00:39;;;;;;;3.67;3.35;;;;;;;;;;1744202;28;20219;-81
2023/12/25 11:01:31;;;;;;;4.72;4.32;;;;;;;;;;1743551;28;20199;-81
2023/12/25 11:02:23;;;;;;;5.40;4.85;;;;;;;;;;1743565;28;20205;-81
2023/12/25 11:03:15;;;;;;;4.03;3.63;;;;;;;;;;1743576;28;20199;-81
2023/12/25 11:04:06;;;;;;;1.90;1.80;;;;;;;;;;1743367;28;20223;-81
2023/12/25 11:04:58;;;;;;;2.20;1.88;;;;;;;;;;1736297;28;20208;-81
2023/12/25 11:05:49;;;;;;;2.95;2.05;;;;;;;;;;1736458;28;20223;-80
2023/12/25 11:06:42;;;;;;;3.20;1.42;;;;;;;;;;1741625;28;20199;-81
2023/12/25 11:07:33;;;;;;;1.58;1.30;;;;;;;;;;1743194;28;20210;-81
2023/12/25 11:08:25;;;;;;;1.75;1.55;;;;;;;;;;1740857;28;20676;-81
2023/12/25 11:09:19;;;;;;;2.92;2.38;;;;;;;;;;1743286;28;20199;-81
2023/12/25 11:10:11;;;;;;;1.40;1.30;;;;;;;;;;1743098;28;20215;-80
2023/12/25 11:11:03;;;;;;;1.75;1.00;;;;;;;;;;1743233;28;20199;-80